createdAt,value
2017-12-13T00:00:06.027Z,7.39
2017-12-13T00:00:46.600Z,7.32
2017-12-13T00:01:27.207Z,7.42
2017-12-13T00:02:07.765Z,7.39
2017-12-13T00:02:48.335Z,7.52
2017-12-13T00:03:28.867Z,7.37
2017-12-13T00:04:09.474Z,7.3
2017-12-13T00:04:49.991Z,7.45
2017-12-13T00:05:30.524Z,7.4
2017-12-13T00:06:11.075Z,7.35
2017-12-13T00:06:52.149Z,7.43
2017-12-13T00:07:32.137Z,7.49
2017-12-13T00:08:12.686Z,7.46
2017-12-13T00:08:53.256Z,7.52
2017-12-13T00:09:33.818Z,7.45
2017-12-13T00:10:14.353Z,7.4
2017-12-13T00:10:54.954Z,7.42
2017-12-13T00:11:35.514Z,7.4
2017-12-13T00:12:16.016Z,7.42
2017-12-13T00:12:56.577Z,7.53
2017-12-13T00:13:37.134Z,7.53
2017-12-13T00:14:17.718Z,7.35
2017-12-13T00:14:58.237Z,7.4
2017-12-13T00:15:38.795Z,7.43
2017-12-13T00:16:19.350Z,7.45
2017-12-13T00:16:59.914Z,7.45
2017-12-13T00:17:40.438Z,7.39
2017-12-13T00:18:20.978Z,7.46
2017-12-13T00:19:01.532Z,7.42
2017-12-13T00:19:42.051Z,7.43
2017-12-13T00:20:22.592Z,7.42
2017-12-13T00:21:03.122Z,7.4
2017-12-13T00:21:43.661Z,7.4
2017-12-13T00:22:24.204Z,7.3
2017-12-13T00:23:04.797Z,7.2
2017-12-13T00:23:45.322Z,7.17
2017-12-13T00:24:25.903Z,7.24
2017-12-13T00:25:06.405Z,6.99
2017-12-13T00:25:46.961Z,6.99
2017-12-13T00:26:27.492Z,7.1
2017-12-13T00:27:08.044Z,7.06
2017-12-13T00:27:48.612Z,7.09
2017-12-13T00:28:29.192Z,7.09
2017-12-13T00:29:09.736Z,7.1
2017-12-13T00:29:50.269Z,7.07
2017-12-13T00:30:30.798Z,7.1
2017-12-13T00:31:11.335Z,7.15
2017-12-13T00:31:51.875Z,6.97
2017-12-13T00:32:32.375Z,7.09
2017-12-13T00:33:12.910Z,7.21
2017-12-13T00:33:53.517Z,7.06
2017-12-13T00:34:34.029Z,7.02
2017-12-13T00:35:14.587Z,7.2
2017-12-13T00:35:55.132Z,7.17
2017-12-13T00:36:35.701Z,7.1
2017-12-13T00:37:16.279Z,7.15
2017-12-13T00:37:56.847Z,7.21
2017-12-13T00:38:37.392Z,7.12
2017-12-13T00:39:17.902Z,7.15
2017-12-13T00:39:58.434Z,7.17
2017-12-13T00:40:38.992Z,7.13
2017-12-13T00:41:19.527Z,7.17
2017-12-13T00:42:00.042Z,7.24
2017-12-13T00:42:40.587Z,7.21
2017-12-13T00:43:21.189Z,7.24
2017-12-13T00:44:01.682Z,7.3
2017-12-13T00:44:42.242Z,7.31
2017-12-13T00:45:22.744Z,7.23
2017-12-13T00:46:03.246Z,7.06
2017-12-13T00:46:43.795Z,7.15
2017-12-13T00:47:24.315Z,7.25
2017-12-13T00:48:04.846Z,7.2
2017-12-13T00:48:45.394Z,7.2
2017-12-13T00:49:25.929Z,7.23
2017-12-13T00:50:06.528Z,7.24
2017-12-13T00:50:47.075Z,7.24
2017-12-13T00:51:27.590Z,7.12
2017-12-13T00:52:08.089Z,7.17
2017-12-13T00:52:48.633Z,7.17
2017-12-13T00:53:29.154Z,7.16
2017-12-13T00:54:09.744Z,7.06
2017-12-13T00:54:50.298Z,7.07
2017-12-13T00:55:30.804Z,7.09
2017-12-13T00:56:11.354Z,7.15
2017-12-13T00:56:51.914Z,7.17
2017-12-13T00:57:32.455Z,7.13
2017-12-13T00:58:12.964Z,7.15
2017-12-13T00:58:53.511Z,7.17
2017-12-13T00:59:34.047Z,7.15
2017-12-13T01:00:14.599Z,7.21
2017-12-13T01:00:55.125Z,7.12
2017-12-13T01:01:35.645Z,7.25
2017-12-13T01:02:16.233Z,7.23
2017-12-13T01:02:56.770Z,7.32
2017-12-13T01:03:37.366Z,7.25
2017-12-13T01:04:17.908Z,7.16
2017-12-13T01:04:58.427Z,7.25
2017-12-13T01:05:38.972Z,7.2
2017-12-13T01:06:19.502Z,7.27
2017-12-13T01:07:00.079Z,7.28
2017-12-13T01:07:40.581Z,7.32
2017-12-13T01:08:21.150Z,7.25
2017-12-13T01:09:01.676Z,7.24
2017-12-13T01:09:42.216Z,7.21
2017-12-13T01:10:22.761Z,7.27
2017-12-13T01:11:03.304Z,7.24
2017-12-13T01:11:43.853Z,7.23
2017-12-13T01:12:24.353Z,7.34
2017-12-13T01:13:04.897Z,7.3
2017-12-13T01:13:45.502Z,7.31
2017-12-13T01:14:26.035Z,7.28
2017-12-13T01:15:06.524Z,7.27
2017-12-13T01:15:47.067Z,7.24
2017-12-13T01:16:27.702Z,7.34
2017-12-13T01:17:08.236Z,7.25
2017-12-13T01:17:48.812Z,7.25
2017-12-13T01:18:29.370Z,7.27
2017-12-13T01:19:09.923Z,7.23
2017-12-13T01:19:50.471Z,7.27
2017-12-13T01:20:31.140Z,7.27
2017-12-13T01:21:11.654Z,7.3
2017-12-13T01:21:52.168Z,7.21
2017-12-13T01:22:32.718Z,7.16
2017-12-13T01:23:13.215Z,7.25
2017-12-13T01:23:53.749Z,7.32
2017-12-13T01:24:34.280Z,7.3
2017-12-13T01:25:14.793Z,7.3
2017-12-13T01:25:55.325Z,7.17
2017-12-13T01:26:35.868Z,7.1
2017-12-13T01:27:16.379Z,7.16
2017-12-13T01:27:56.879Z,7.1
2017-12-13T01:28:37.430Z,7.16
2017-12-13T01:29:17.978Z,7.17
2017-12-13T01:29:58.567Z,7.21
2017-12-13T01:30:39.133Z,7.21
2017-12-13T01:31:19.663Z,7.28
2017-12-13T01:32:00.211Z,7.31
2017-12-13T01:32:40.719Z,7.27
2017-12-13T01:33:21.309Z,7.27
2017-12-13T01:34:01.803Z,7.24
2017-12-13T01:34:42.347Z,7.17
2017-12-13T01:35:22.903Z,7.16
2017-12-13T01:36:03.503Z,7.12
2017-12-13T01:36:44.035Z,7.05
2017-12-13T01:37:24.569Z,7.09
2017-12-13T01:38:05.098Z,7.06
2017-12-13T01:38:45.684Z,7.06
2017-12-13T01:39:26.204Z,7.2
2017-12-13T01:40:06.800Z,6.97
2017-12-13T01:40:47.331Z,7.1
2017-12-13T01:41:27.856Z,7.06
2017-12-13T01:42:08.411Z,7.03
2017-12-13T01:42:48.968Z,7.03
2017-12-13T01:43:29.489Z,7.03
2017-12-13T01:44:10.046Z,7.07
2017-12-13T01:44:50.589Z,7.07
2017-12-13T01:45:31.140Z,7.12
2017-12-13T01:46:11.692Z,7.17
2017-12-13T01:46:52.230Z,7.12
2017-12-13T01:47:32.758Z,7.1
2017-12-13T01:48:13.289Z,7.09
2017-12-13T01:48:53.796Z,7.13
2017-12-13T01:49:34.372Z,7.09
2017-12-13T01:50:14.884Z,7.09
2017-12-13T01:50:55.402Z,7.2
2017-12-13T01:51:35.986Z,7.21
2017-12-13T01:52:16.486Z,7.06
2017-12-13T01:52:57.059Z,7.07
2017-12-13T01:53:37.613Z,6.97
2017-12-13T01:54:18.126Z,7.06
2017-12-13T01:54:58.637Z,7.03
2017-12-13T01:55:39.160Z,7.07
2017-12-13T01:56:19.826Z,7.09
2017-12-13T01:57:02.411Z,6.92
2017-12-13T01:57:43.001Z,7.03
2017-12-13T01:58:23.504Z,6.97
2017-12-13T01:59:04.018Z,7.09
2017-12-13T01:59:44.695Z,6.95
2017-12-13T02:00:25.210Z,7.02
2017-12-13T02:01:05.785Z,7.12
2017-12-13T02:01:46.308Z,7.15
2017-12-13T02:02:26.873Z,7.1
2017-12-13T02:03:07.411Z,7.09
2017-12-13T02:03:47.955Z,7.07
2017-12-13T02:04:28.544Z,7.02
2017-12-13T02:05:09.069Z,6.98
2017-12-13T02:05:49.618Z,6.92
2017-12-13T02:06:30.230Z,6.97
2017-12-13T02:07:10.791Z,6.92
2017-12-13T02:07:51.365Z,6.89
2017-12-13T02:08:31.864Z,6.87
2017-12-13T02:09:12.471Z,6.85
2017-12-13T02:09:53.021Z,6.92
2017-12-13T02:10:33.550Z,6.81
2017-12-13T02:11:14.150Z,7.02
2017-12-13T02:11:54.724Z,6.95
2017-12-13T02:12:35.260Z,6.88
2017-12-13T02:13:15.835Z,6.84
2017-12-13T02:13:57.177Z,6.81
2017-12-13T02:14:36.989Z,6.89
2017-12-13T02:15:17.554Z,6.89
2017-12-13T02:15:58.114Z,6.98
2017-12-13T02:16:38.643Z,6.98
2017-12-13T02:17:19.181Z,6.91
2017-12-13T02:17:59.718Z,6.84
2017-12-13T02:18:40.263Z,6.84
2017-12-13T02:19:20.814Z,6.74
2017-12-13T02:20:01.419Z,6.87
2017-12-13T02:20:41.934Z,6.88
2017-12-13T02:21:22.477Z,6.84
2017-12-13T02:22:02.997Z,6.64
2017-12-13T02:22:43.560Z,6.7
2017-12-13T02:23:24.105Z,6.77
2017-12-13T02:24:04.689Z,6.74
2017-12-13T02:24:45.285Z,6.66
2017-12-13T02:25:25.808Z,6.81
2017-12-13T02:26:06.355Z,6.87
2017-12-13T02:26:46.946Z,6.84
2017-12-13T02:27:27.449Z,6.8
2017-12-13T02:28:08.011Z,6.89
2017-12-13T02:28:48.589Z,6.84
2017-12-13T02:29:29.107Z,6.88
2017-12-13T02:30:09.651Z,6.91
2017-12-13T02:30:50.184Z,6.94
2017-12-13T02:31:30.690Z,6.87
2017-12-13T02:32:11.242Z,6.88
2017-12-13T02:32:51.810Z,6.94
2017-12-13T02:33:32.343Z,6.94
2017-12-13T02:34:12.919Z,6.89
2017-12-13T02:34:53.410Z,6.84
2017-12-13T02:35:33.998Z,6.87
2017-12-13T02:36:14.574Z,6.79
2017-12-13T02:36:55.131Z,6.85
2017-12-13T02:37:35.676Z,6.77
2017-12-13T02:38:16.180Z,6.73
2017-12-13T02:38:56.763Z,6.7
2017-12-13T02:39:37.302Z,6.62
2017-12-13T02:40:17.870Z,6.66
2017-12-13T02:40:58.400Z,6.66
2017-12-13T02:41:38.916Z,6.73
2017-12-13T02:42:19.456Z,6.84
2017-12-13T02:43:00.031Z,6.88
2017-12-13T02:43:40.593Z,6.8
2017-12-13T02:44:21.125Z,6.81
2017-12-13T02:45:01.677Z,6.84
2017-12-13T02:45:42.215Z,6.81
2017-12-13T02:46:22.766Z,6.85
2017-12-13T02:47:03.368Z,6.8
2017-12-13T02:47:44.857Z,6.76
2017-12-13T02:48:25.412Z,6.77
2017-12-13T02:49:05.917Z,6.74
2017-12-13T02:49:46.437Z,6.81
2017-12-13T02:50:27.015Z,6.88
2017-12-13T02:51:07.538Z,6.76
2017-12-13T02:51:48.045Z,6.89
2017-12-13T02:52:28.604Z,6.89
2017-12-13T02:53:09.136Z,6.8
2017-12-13T02:53:49.621Z,6.81
2017-12-13T02:54:30.179Z,6.84
2017-12-13T02:55:10.715Z,6.84
2017-12-13T02:55:51.233Z,6.79
2017-12-13T02:56:31.758Z,6.84
2017-12-13T02:57:12.302Z,6.85
2017-12-13T02:57:53.705Z,6.77
2017-12-13T02:58:34.287Z,6.91
2017-12-13T02:59:14.843Z,6.8
2017-12-13T02:59:55.412Z,6.81
2017-12-13T03:00:35.926Z,6.81
2017-12-13T03:01:16.481Z,6.76
2017-12-13T03:01:57.024Z,6.81
2017-12-13T03:02:37.586Z,6.77
2017-12-13T03:03:18.131Z,6.81
2017-12-13T03:03:58.690Z,6.87
2017-12-13T03:04:39.308Z,6.81
2017-12-13T03:05:19.906Z,6.87
2017-12-13T03:06:00.414Z,6.89
2017-12-13T03:06:40.983Z,6.97
2017-12-13T03:07:21.508Z,6.97
2017-12-13T03:08:02.043Z,6.95
2017-12-13T03:08:42.622Z,6.87
2017-12-13T03:09:23.129Z,6.81
2017-12-13T03:10:03.660Z,6.87
2017-12-13T03:10:44.206Z,6.97
2017-12-13T03:11:24.761Z,6.89
2017-12-13T03:12:05.298Z,6.95
2017-12-13T03:12:45.900Z,7.03
2017-12-13T03:13:26.397Z,7.09
2017-12-13T03:14:06.928Z,7.09
2017-12-13T03:14:47.477Z,7.02
2017-12-13T03:15:28.023Z,6.95
2017-12-13T03:16:08.562Z,6.91
2017-12-13T03:16:49.151Z,6.98
2017-12-13T03:17:29.744Z,6.98
2017-12-13T03:18:10.236Z,7.02
2017-12-13T03:18:50.833Z,6.94
2017-12-13T03:19:31.338Z,6.99
2017-12-13T03:20:11.907Z,7.09
2017-12-13T03:20:52.454Z,7.15
2017-12-13T03:21:33.001Z,7.09
2017-12-13T03:22:13.555Z,7.06
2017-12-13T03:22:54.139Z,7.09
2017-12-13T03:23:34.681Z,7.13
2017-12-13T03:24:15.178Z,7.09
2017-12-13T03:24:55.737Z,7.12
2017-12-13T03:25:36.299Z,7.12
2017-12-13T03:26:16.893Z,6.94
2017-12-13T03:26:57.804Z,7.1
2017-12-13T03:27:38.342Z,6.92
2017-12-13T03:28:18.938Z,6.94
2017-12-13T03:28:59.446Z,6.99
2017-12-13T03:29:39.938Z,7.03
2017-12-13T03:30:20.532Z,7.09
2017-12-13T03:31:01.166Z,7.05
2017-12-13T03:31:41.674Z,7.02
2017-12-13T03:32:22.209Z,7.15
2017-12-13T03:33:02.752Z,7.1
2017-12-13T03:33:43.347Z,7.13
2017-12-13T03:34:23.874Z,7.09
2017-12-13T03:35:04.423Z,7.17
2017-12-13T03:35:44.910Z,7.23
2017-12-13T03:36:25.424Z,7.2
2017-12-13T03:37:05.958Z,7.13
2017-12-13T03:37:46.500Z,7.2
2017-12-13T03:38:27.000Z,7.25
2017-12-13T03:39:07.576Z,7.16
2017-12-13T03:39:48.140Z,7.1
2017-12-13T03:40:28.679Z,7.2
2017-12-13T03:41:09.185Z,7.28
2017-12-13T03:41:49.710Z,7.3
2017-12-13T03:42:30.232Z,7.27
2017-12-13T03:43:10.735Z,7.3
2017-12-13T03:43:51.303Z,7.28
2017-12-13T03:44:31.833Z,7.34
2017-12-13T03:45:12.390Z,7.42
2017-12-13T03:45:52.950Z,7.31
2017-12-13T03:46:33.477Z,7.42
2017-12-13T03:47:14.001Z,7.48
2017-12-13T03:47:54.564Z,7.45
2017-12-13T03:48:35.115Z,7.37
2017-12-13T03:49:15.687Z,7.34
2017-12-13T03:49:56.214Z,7.27
2017-12-13T03:50:36.764Z,7.32
2017-12-13T03:51:17.288Z,7.3
2017-12-13T03:51:57.880Z,7.27
2017-12-13T03:52:38.439Z,7.32
2017-12-13T03:53:18.958Z,7.25
2017-12-13T03:53:59.505Z,7.31
2017-12-13T03:54:39.994Z,7.45
2017-12-13T03:55:20.510Z,7.31
2017-12-13T03:56:01.057Z,7.32
2017-12-13T03:56:41.620Z,7.48
2017-12-13T03:57:22.218Z,7.35
2017-12-13T03:58:02.760Z,7.45
2017-12-13T03:58:43.310Z,7.42
2017-12-13T03:59:23.896Z,7.4
2017-12-13T04:00:04.467Z,7.48
2017-12-13T04:00:44.971Z,7.43
2017-12-13T04:01:25.592Z,7.42
2017-12-13T04:02:06.178Z,7.48
2017-12-13T04:02:46.715Z,7.46
2017-12-13T04:03:27.273Z,7.3
2017-12-13T04:04:07.801Z,7.35
2017-12-13T04:04:48.344Z,7.3
2017-12-13T04:05:28.926Z,7.23
2017-12-13T04:06:09.490Z,7.25
2017-12-13T04:06:50.004Z,7.28
2017-12-13T04:07:30.538Z,7.27
2017-12-13T04:08:11.142Z,7.28
2017-12-13T04:08:51.658Z,7.34
2017-12-13T04:09:32.223Z,7.3
2017-12-13T04:10:12.798Z,7.32
2017-12-13T04:10:53.300Z,7.35
2017-12-13T04:11:33.850Z,7.39
2017-12-13T04:12:14.425Z,7.39
2017-12-13T04:12:54.999Z,7.35
2017-12-13T04:13:35.592Z,7.42
2017-12-13T04:14:16.122Z,7.45
2017-12-13T04:14:56.672Z,7.4
2017-12-13T04:15:37.218Z,7.42
2017-12-13T04:16:17.776Z,7.42
2017-12-13T04:16:58.331Z,7.45
2017-12-13T04:17:38.808Z,7.42
2017-12-13T04:18:19.334Z,7.48
2017-12-13T04:18:59.986Z,7.46
2017-12-13T04:19:40.493Z,7.39
2017-12-13T04:20:21.086Z,7.37
2017-12-13T04:21:01.657Z,7.4
2017-12-13T04:21:42.202Z,7.34
2017-12-13T04:22:22.756Z,7.35
2017-12-13T04:23:03.304Z,7.45
2017-12-13T04:23:43.824Z,7.45
2017-12-13T04:24:24.382Z,7.42
2017-12-13T04:25:04.922Z,7.35
2017-12-13T04:25:45.422Z,7.39
2017-12-13T04:26:25.983Z,7.43
2017-12-13T04:27:06.565Z,7.37
2017-12-13T04:27:47.103Z,7.49
2017-12-13T04:28:27.673Z,7.39
2017-12-13T04:29:08.197Z,7.42
2017-12-13T04:29:48.739Z,7.45
2017-12-13T04:30:29.298Z,7.42
2017-12-13T04:31:09.840Z,7.4
2017-12-13T04:31:50.390Z,7.28
2017-12-13T04:32:30.937Z,7.32
2017-12-13T04:33:11.481Z,7.3
2017-12-13T04:33:52.011Z,7.31
2017-12-13T04:34:32.567Z,7.31
2017-12-13T04:35:13.108Z,7.39
2017-12-13T04:35:53.622Z,7.35
2017-12-13T04:36:34.179Z,7.3
2017-12-13T04:37:14.756Z,7.27
2017-12-13T04:37:55.256Z,7.27
2017-12-13T04:38:35.810Z,7.32
2017-12-13T04:39:16.383Z,7.3
2017-12-13T04:39:57.709Z,7.31
2017-12-13T04:40:37.463Z,7.32
2017-12-13T04:41:17.995Z,7.3
2017-12-13T04:41:58.523Z,7.35
2017-12-13T04:42:39.078Z,7.4
2017-12-13T04:43:19.672Z,7.28
2017-12-13T04:44:00.193Z,7.21
2017-12-13T04:44:40.747Z,7.35
2017-12-13T04:45:21.300Z,7.32
2017-12-13T04:46:01.882Z,7.3
2017-12-13T04:46:42.453Z,7.37
2017-12-13T04:47:22.948Z,7.35
2017-12-13T04:48:03.482Z,7.4
2017-12-13T04:48:44.051Z,7.39
2017-12-13T04:49:24.575Z,7.32
2017-12-13T04:50:05.123Z,7.31
2017-12-13T04:50:45.691Z,7.39
2017-12-13T04:51:27.095Z,7.37
2017-12-13T04:52:07.688Z,7.3
2017-12-13T04:52:48.219Z,7.34
2017-12-13T04:53:28.770Z,7.3
2017-12-13T04:54:09.284Z,7.25
2017-12-13T04:54:49.831Z,7.3
2017-12-13T04:55:30.369Z,7.23
2017-12-13T04:56:11.714Z,7.21
2017-12-13T04:56:51.392Z,7.24
2017-12-13T04:57:31.946Z,7.1
2017-12-13T04:58:12.482Z,7.13
2017-12-13T04:58:53.024Z,7.15
2017-12-13T04:59:33.572Z,7.17
2017-12-13T05:00:14.111Z,7.15
2017-12-13T05:00:54.674Z,7.12
2017-12-13T05:01:35.198Z,7.23
2017-12-13T05:02:15.813Z,7.3
2017-12-13T05:02:56.430Z,7.15
2017-12-13T05:03:36.976Z,7.23
2017-12-13T05:04:17.524Z,7.15
2017-12-13T05:04:58.147Z,7.17
2017-12-13T05:05:38.697Z,7.09
2017-12-13T05:06:19.215Z,7.06
2017-12-13T05:06:59.744Z,7.24
2017-12-13T05:07:40.307Z,7.15
2017-12-13T05:08:20.811Z,7.1
2017-12-13T05:09:01.328Z,7.02
2017-12-13T05:09:41.867Z,7.12
2017-12-13T05:10:22.442Z,7.15
2017-12-13T05:11:03.718Z,7.1
2017-12-13T05:11:43.569Z,7.15
2017-12-13T05:12:24.136Z,7.07
2017-12-13T05:13:04.744Z,7.07
2017-12-13T05:13:45.243Z,7.1
2017-12-13T05:14:25.845Z,7.09
2017-12-13T05:15:06.389Z,7.2
2017-12-13T05:15:46.968Z,7.09
2017-12-13T05:16:27.492Z,7.06
2017-12-13T05:17:08.067Z,7.09
2017-12-13T05:17:48.647Z,7.07
2017-12-13T05:18:29.199Z,7.09
2017-12-13T05:19:09.729Z,7.09
2017-12-13T05:19:50.272Z,7.07
2017-12-13T05:20:30.835Z,6.92
2017-12-13T05:21:11.362Z,6.88
2017-12-13T05:21:51.853Z,6.99
2017-12-13T05:22:32.482Z,6.92
2017-12-13T05:23:13.060Z,7.05
2017-12-13T05:23:53.573Z,6.89
2017-12-13T05:24:34.138Z,6.89
2017-12-13T05:25:14.722Z,6.8
2017-12-13T05:25:55.243Z,6.81
2017-12-13T05:26:35.795Z,6.81
2017-12-13T05:27:16.344Z,6.91
2017-12-13T05:27:56.887Z,6.89
2017-12-13T05:28:37.460Z,6.85
2017-12-13T05:29:18.003Z,6.84
2017-12-13T05:29:58.574Z,6.91
2017-12-13T05:30:39.156Z,6.94
2017-12-13T05:31:19.674Z,6.99
2017-12-13T05:32:00.244Z,6.85
2017-12-13T05:32:40.792Z,6.85
2017-12-13T05:33:21.372Z,6.84
2017-12-13T05:34:01.932Z,6.81
2017-12-13T05:34:42.458Z,6.81
2017-12-13T05:35:23.110Z,6.76
2017-12-13T05:36:03.624Z,6.84
2017-12-13T05:36:44.227Z,6.85
2017-12-13T05:37:24.777Z,6.84
2017-12-13T05:38:05.376Z,6.8
2017-12-13T05:38:45.888Z,6.81
2017-12-13T05:39:26.520Z,6.73
2017-12-13T05:40:07.075Z,6.8
2017-12-13T05:40:47.614Z,6.76
2017-12-13T05:41:28.206Z,6.74
2017-12-13T05:42:08.745Z,6.7
2017-12-13T05:42:49.369Z,6.74
2017-12-13T05:43:29.970Z,6.73
2017-12-13T05:44:10.496Z,6.81
2017-12-13T05:44:51.030Z,6.74
2017-12-13T05:45:31.598Z,6.84
2017-12-13T05:46:12.169Z,6.73
2017-12-13T05:46:52.739Z,6.74
2017-12-13T05:47:33.307Z,6.76
2017-12-13T05:48:13.879Z,6.74
2017-12-13T05:48:54.425Z,6.87
2017-12-13T05:49:34.985Z,6.85
2017-12-13T05:50:15.583Z,6.89
2017-12-13T05:50:56.111Z,6.84
2017-12-13T05:51:36.702Z,6.89
2017-12-13T05:52:17.260Z,6.87
2017-12-13T05:52:58.595Z,6.81
2017-12-13T05:53:39.219Z,6.8
2017-12-13T05:54:19.692Z,6.81
2017-12-13T05:55:00.817Z,6.73
2017-12-13T05:55:41.382Z,6.69
2017-12-13T05:56:21.895Z,6.73
2017-12-13T05:57:02.436Z,6.7
2017-12-13T05:57:43.014Z,6.62
2017-12-13T05:58:23.611Z,6.71
2017-12-13T05:59:04.191Z,6.61
2017-12-13T05:59:44.776Z,6.69
2017-12-13T06:00:25.306Z,6.66
2017-12-13T06:01:05.876Z,6.67
2017-12-13T06:01:46.424Z,6.7
2017-12-13T06:02:26.984Z,6.59
2017-12-13T06:03:07.546Z,6.74
2017-12-13T06:03:48.127Z,6.64
2017-12-13T06:04:28.707Z,6.66
2017-12-13T06:05:10.094Z,6.56
2017-12-13T06:05:50.697Z,6.59
2017-12-13T06:06:31.252Z,6.7
2017-12-13T06:07:11.793Z,6.54
2017-12-13T06:07:52.607Z,6.56
2017-12-13T06:08:33.174Z,6.69
2017-12-13T06:09:13.754Z,6.61
2017-12-13T06:09:54.314Z,6.58
2017-12-13T06:10:34.910Z,6.61
2017-12-13T06:11:15.483Z,6.62
2017-12-13T06:11:55.968Z,6.62
2017-12-13T06:12:36.594Z,6.59
2017-12-13T06:13:17.190Z,6.58
2017-12-13T06:13:57.815Z,6.61
2017-12-13T06:14:38.378Z,6.64
2017-12-13T06:15:18.919Z,6.56
2017-12-13T06:15:59.410Z,6.55
2017-12-13T06:16:40.008Z,6.52
2017-12-13T06:17:20.546Z,6.56
2017-12-13T06:18:01.099Z,6.64
2017-12-13T06:18:42.355Z,6.64
2017-12-13T06:19:22.925Z,6.71
2017-12-13T06:20:03.531Z,6.74
2017-12-13T06:20:44.030Z,6.77
2017-12-13T06:21:24.598Z,6.59
2017-12-13T06:22:05.178Z,6.58
2017-12-13T06:22:45.743Z,6.61
2017-12-13T06:23:26.318Z,6.7
2017-12-13T06:24:06.940Z,6.73
2017-12-13T06:24:47.422Z,6.64
2017-12-13T06:25:27.954Z,6.73
2017-12-13T06:26:08.718Z,6.81
2017-12-13T06:26:49.250Z,6.71
2017-12-13T06:27:32.446Z,6.73
2017-12-13T06:28:13.041Z,6.74
2017-12-13T06:28:53.643Z,6.73
2017-12-13T06:29:34.170Z,6.67
2017-12-13T06:30:14.793Z,6.59
2017-12-13T06:30:55.363Z,6.61
2017-12-13T06:31:36.837Z,6.46
2017-12-13T06:32:17.376Z,6.54
2017-12-13T06:32:57.979Z,6.59
2017-12-13T06:33:38.554Z,6.69
2017-12-13T06:34:19.057Z,6.56
2017-12-13T06:35:00.010Z,6.56
2017-12-13T06:35:40.572Z,6.56
2017-12-13T06:36:21.181Z,6.64
2017-12-13T06:37:01.790Z,6.58
2017-12-13T06:37:42.466Z,6.44
2017-12-13T06:38:23.043Z,6.54
2017-12-13T06:39:03.578Z,6.56
2017-12-13T06:39:44.211Z,6.61
2017-12-13T06:40:24.759Z,6.58
2017-12-13T06:41:06.216Z,6.43
2017-12-13T06:41:46.824Z,6.44
2017-12-13T06:42:27.432Z,6.46
2017-12-13T06:43:08.339Z,6.49
2017-12-13T06:43:49.025Z,6.46
2017-12-13T06:44:29.569Z,6.58
2017-12-13T06:45:10.101Z,6.49
2017-12-13T06:45:50.701Z,6.46
2017-12-13T06:46:31.240Z,6.44
2017-12-13T06:47:11.836Z,6.51
2017-12-13T06:47:52.397Z,6.49
2017-12-13T06:48:33.057Z,6.66
2017-12-13T06:49:13.613Z,6.61
2017-12-13T06:49:54.223Z,6.48
2017-12-13T06:50:34.756Z,6.37
2017-12-13T06:51:15.347Z,6.41
2017-12-13T06:51:55.890Z,6.52
2017-12-13T06:52:36.532Z,6.49
2017-12-13T06:53:17.120Z,6.66
2017-12-13T06:53:57.698Z,6.61
2017-12-13T06:54:38.209Z,6.55
2017-12-13T06:55:18.730Z,6.49
2017-12-13T06:55:59.282Z,6.49
2017-12-13T06:56:39.873Z,6.48
2017-12-13T06:57:20.404Z,6.43
2017-12-13T06:58:01.040Z,6.58
2017-12-13T06:58:41.569Z,6.54
2017-12-13T06:59:22.141Z,6.56
2017-12-13T07:00:02.689Z,6.69
2017-12-13T07:00:43.278Z,6.62
2017-12-13T07:01:23.856Z,6.69
2017-12-13T07:02:04.456Z,6.58
2017-12-13T07:02:45.025Z,6.61
2017-12-13T07:03:25.547Z,6.49
2017-12-13T07:04:06.103Z,6.49
2017-12-13T07:04:46.671Z,6.56
2017-12-13T07:05:27.277Z,6.67
2017-12-13T07:06:07.938Z,6.73
2017-12-13T07:06:48.555Z,6.81
2017-12-13T07:07:29.050Z,6.74
2017-12-13T07:08:09.634Z,6.8
2017-12-13T07:08:50.177Z,6.8
2017-12-13T07:09:30.733Z,6.84
2017-12-13T07:10:11.306Z,6.77
2017-12-13T07:10:52.557Z,6.8
2017-12-13T07:11:33.103Z,6.92
2017-12-13T07:12:13.702Z,6.91
2017-12-13T07:12:54.291Z,6.87
2017-12-13T07:13:34.931Z,6.79
2017-12-13T07:14:15.555Z,6.81
2017-12-13T07:14:56.171Z,6.81
2017-12-13T07:15:36.747Z,6.84
2017-12-13T07:16:17.394Z,6.81
2017-12-13T07:16:57.943Z,6.79
2017-12-13T07:17:38.511Z,7.02
2017-12-13T07:18:20.088Z,7.13
2017-12-13T07:19:00.688Z,7.42
2017-12-13T07:19:41.194Z,7.43
2017-12-13T07:20:21.812Z,7.48
2017-12-13T07:21:02.377Z,7.58
2017-12-13T07:21:42.967Z,7.86
2017-12-13T07:22:23.500Z,8.19
2017-12-13T07:23:04.083Z,8.04
2017-12-13T07:23:44.654Z,7.74
2017-12-13T07:24:25.311Z,7.58
2017-12-13T07:25:05.914Z,7.46
2017-12-13T07:25:46.488Z,7.1
2017-12-13T07:26:27.047Z,7.17
2017-12-13T07:27:07.581Z,7.16
2017-12-13T07:27:48.134Z,7.02
2017-12-13T07:28:28.704Z,7.12
2017-12-13T07:29:09.379Z,7.16
2017-12-13T07:29:49.866Z,7.34
2017-12-13T07:30:30.434Z,7.71
2017-12-13T07:31:10.998Z,7.63
2017-12-13T07:31:51.541Z,7.72
2017-12-13T07:32:32.174Z,7.72
2017-12-13T07:33:12.808Z,7.53
2017-12-13T07:33:53.458Z,7.52
2017-12-13T07:34:33.924Z,7.8
2017-12-13T07:35:14.465Z,7.69
2017-12-13T07:35:55.052Z,8.01
2017-12-13T07:36:35.571Z,8
2017-12-13T07:37:16.216Z,7.71
2017-12-13T07:37:56.754Z,7.63
2017-12-13T07:38:37.324Z,7.53
2017-12-13T07:39:17.948Z,7.43
2017-12-13T07:39:58.576Z,7.49
2017-12-13T07:40:39.080Z,7.45
2017-12-13T07:41:19.713Z,7.42
2017-12-13T07:42:00.391Z,7.45
2017-12-13T07:42:40.822Z,7.57
2017-12-13T07:43:21.480Z,7.46
2017-12-13T07:44:01.991Z,7.48
2017-12-13T07:44:42.688Z,7.79
2017-12-13T07:45:23.325Z,8
2017-12-13T07:46:03.855Z,7.83
2017-12-13T07:46:44.496Z,7.77
2017-12-13T07:47:24.952Z,7.63
2017-12-13T07:48:05.599Z,7.67
2017-12-13T07:48:46.161Z,7.64
2017-12-13T07:49:26.689Z,7.5
2017-12-13T07:50:07.259Z,7.53
2017-12-13T07:50:47.843Z,7.5
2017-12-13T07:51:28.432Z,7.57
2017-12-13T07:52:08.969Z,7.53
2017-12-13T07:52:49.510Z,7.42
2017-12-13T07:53:30.052Z,7.52
2017-12-13T07:54:10.704Z,7.53
2017-12-13T07:54:51.339Z,7.57
2017-12-13T07:55:31.932Z,7.52
2017-12-13T07:56:12.524Z,7.55
2017-12-13T07:56:53.116Z,7.55
2017-12-13T07:57:33.683Z,7.39
2017-12-13T07:58:14.271Z,7.35
2017-12-13T07:58:54.842Z,7.3
2017-12-13T07:59:35.405Z,7.3
2017-12-13T08:00:15.961Z,7.3
2017-12-13T08:00:56.544Z,7.4
2017-12-13T08:01:37.058Z,7.31
2017-12-13T08:02:17.608Z,7.35
2017-12-13T08:02:58.136Z,7.23
2017-12-13T08:03:38.704Z,7.31
2017-12-13T08:04:19.220Z,7.27
2017-12-13T08:04:59.798Z,7.48
2017-12-13T08:05:40.368Z,7.43
2017-12-13T08:06:20.913Z,7.42
2017-12-13T08:07:01.486Z,7.37
2017-12-13T08:07:42.182Z,7.43
2017-12-13T08:08:22.748Z,7.43
2017-12-13T08:09:03.261Z,7.43
2017-12-13T08:09:43.825Z,7.39
2017-12-13T08:10:24.397Z,7.48
2017-12-13T08:11:04.979Z,7.53
2017-12-13T08:11:45.518Z,7.58
2017-12-13T08:12:26.077Z,7.61
2017-12-13T08:13:06.640Z,7.64
2017-12-13T08:13:47.235Z,7.5
2017-12-13T08:14:27.756Z,7.83
2017-12-13T08:15:08.367Z,7.86
2017-12-13T08:15:48.911Z,8.02
2017-12-13T08:16:29.488Z,8.12
2017-12-13T08:17:10.165Z,8.12
2017-12-13T08:17:50.711Z,8.02
2017-12-13T08:18:31.273Z,8.19
2017-12-13T08:19:11.890Z,8.1
2017-12-13T08:19:52.520Z,8.07
2017-12-13T08:20:33.073Z,7.93
2017-12-13T08:21:13.682Z,8.05
2017-12-13T08:21:54.225Z,7.87
2017-12-13T08:22:34.791Z,7.93
2017-12-13T08:23:15.338Z,7.74
2017-12-13T08:23:55.911Z,7.74
2017-12-13T08:24:36.490Z,7.74
2017-12-13T08:25:17.098Z,7.72
2017-12-13T08:25:57.673Z,7.79
2017-12-13T08:26:38.199Z,7.97
2017-12-13T08:27:18.774Z,8.26
2017-12-13T08:27:59.344Z,8.07
2017-12-13T08:28:39.908Z,8.12
2017-12-13T08:29:20.456Z,8.28
2017-12-13T08:30:00.998Z,8.28
2017-12-13T08:30:41.564Z,8.41
2017-12-13T08:31:22.174Z,8.8
2017-12-13T08:32:02.703Z,8.4
2017-12-13T08:32:43.276Z,8.47
2017-12-13T08:33:23.914Z,8.26
2017-12-13T08:34:04.468Z,8.2
2017-12-13T08:34:45.008Z,8.11
2017-12-13T08:35:25.669Z,8.15
2017-12-13T08:36:06.243Z,8.1
2017-12-13T08:36:46.928Z,7.86
2017-12-13T08:37:27.546Z,7.71
2017-12-13T08:38:08.088Z,7.69
2017-12-13T08:38:48.663Z,7.86
2017-12-13T08:39:31.211Z,7.95
2017-12-13T08:40:11.736Z,7.85
2017-12-13T08:40:52.344Z,7.92
2017-12-13T08:41:32.893Z,8.04
2017-12-13T08:42:13.492Z,8.15
2017-12-13T08:42:54.061Z,8.22
2017-12-13T08:43:34.621Z,8.22
2017-12-13T08:44:15.277Z,8.18
2017-12-13T08:44:55.838Z,8.05
2017-12-13T08:45:36.394Z,8.16
2017-12-13T08:46:16.978Z,8
2017-12-13T08:46:57.545Z,8.04
2017-12-13T08:47:38.110Z,8.02
2017-12-13T08:48:18.724Z,8.1
2017-12-13T08:48:59.216Z,8.05
2017-12-13T08:49:39.815Z,8.04
2017-12-13T08:50:20.387Z,8.19
2017-12-13T08:51:00.961Z,8.1
2017-12-13T08:51:41.517Z,8.05
2017-12-13T08:52:22.100Z,8.02
2017-12-13T08:53:02.812Z,8
2017-12-13T08:53:43.388Z,7.97
2017-12-13T08:54:23.962Z,7.89
2017-12-13T08:55:04.514Z,7.93
2017-12-13T08:55:45.080Z,7.97
2017-12-13T08:56:25.600Z,8.01
2017-12-13T08:57:06.172Z,7.97
2017-12-13T08:57:46.820Z,8.12
2017-12-13T08:58:27.356Z,8.12
2017-12-13T08:59:07.971Z,8.15
2017-12-13T08:59:48.574Z,8.12
2017-12-13T09:00:29.110Z,8.05
2017-12-13T09:01:09.756Z,8.07
2017-12-13T09:01:50.437Z,8.16
2017-12-13T09:02:30.947Z,8.18